createdAt,value
2018-06-12T00:04:52.205Z,27.2
2018-06-12T00:14:51.733Z,27.2
2018-06-12T00:24:50.634Z,27.2
2018-06-12T00:34:50.213Z,27.2
2018-06-12T00:44:49.390Z,27.2
2018-06-12T00:54:48.622Z,27.2
2018-06-12T01:04:47.880Z,27.2
2018-06-12T01:14:47.113Z,27.2
2018-06-12T01:24:46.061Z,27.2
2018-06-12T01:34:45.259Z,27.2
2018-06-12T01:44:44.537Z,27.2
2018-06-12T01:54:43.731Z,27.2
2018-06-12T02:04:43.047Z,27.2
2018-06-12T02:14:42.535Z,27.2
2018-06-12T02:24:41.426Z,27.2
2018-06-12T02:34:40.657Z,27.3
2018-06-12T02:44:39.985Z,27.2
2018-06-12T02:54:39.441Z,27.2
2018-06-12T03:04:38.345Z,27.1
2018-06-12T03:14:37.592Z,27.1
2018-06-12T03:24:36.843Z,27.1
2018-06-12T03:34:36.704Z,27.2
2018-06-12T03:44:35.590Z,27.2
2018-06-12T03:54:34.507Z,27.1
2018-06-12T04:04:33.743Z,27.2
2018-06-12T04:14:33.011Z,27.2
2018-06-12T04:24:32.246Z,27.1
2018-06-12T04:34:31.445Z,27.1
2018-06-12T04:44:30.689Z,27.1
2018-06-12T04:54:29.965Z,27.2
2018-06-12T05:04:29.460Z,27.1
2018-06-12T05:14:28.713Z,27.1
2018-06-12T05:24:28.040Z,27.2
2018-06-12T05:34:27.170Z,27.1
2018-06-12T05:44:26.085Z,27.1
2018-06-12T05:54:25.308Z,27.2
2018-06-12T06:04:25.135Z,27.2
2018-06-12T06:14:23.789Z,27.2
2018-06-12T06:24:23.043Z,27.2
2018-06-12T06:34:22.238Z,27.2
2018-06-12T15:13:48.067Z,27.8
2018-06-12T15:23:47.287Z,27.8
2018-06-12T15:33:46.862Z,27.8
2018-06-12T15:43:46.050Z,27.8
2018-06-12T15:53:45.298Z,27.8
2018-06-12T16:03:44.241Z,27.8
2018-06-12T16:13:43.484Z,27.9
2018-06-12T16:23:42.995Z,27.9
2018-06-12T16:33:41.961Z,28
2018-06-12T16:43:41.188Z,28
2018-06-12T16:53:40.722Z,27.9
2018-06-12T17:03:39.742Z,27.9
2018-06-12T17:13:39.189Z,27.9
2018-06-12T17:23:38.129Z,27.9
2018-06-12T17:33:37.365Z,27.9
2018-06-12T17:43:36.688Z,27.9
2018-06-12T17:53:36.402Z,27.9
2018-06-12T18:03:35.078Z,27.9
2018-06-12T18:13:34.595Z,27.9
2018-06-12T18:23:33.787Z,27.8
2018-06-12T18:33:33.073Z,27.8
2018-06-12T18:43:32.588Z,27.7
2018-06-12T18:53:31.266Z,27.7
2018-06-12T19:03:30.519Z,27.8
2018-06-12T19:13:30.071Z,27.8
2018-06-12T19:23:29.318Z,27.9
2018-06-12T19:33:28.266Z,27.7
2018-06-12T19:43:27.503Z,27.6
2018-06-12T19:53:27.026Z,27.6
2018-06-12T20:03:25.931Z,27.6
2018-06-12T20:13:25.164Z,27.4
2018-06-12T20:23:24.404Z,27.4
2018-06-12T20:33:23.724Z,27.5
2018-06-12T20:43:22.876Z,27.4
2018-06-12T20:53:22.111Z,27.4
2018-06-12T21:03:21.641Z,27.4
2018-06-12T21:13:20.881Z,27.4
2018-06-12T21:23:20.110Z,27.3
2018-06-12T21:33:19.356Z,27.3
2018-06-12T21:43:18.294Z,27.4
2018-06-12T21:53:17.543Z,27.3
2018-06-12T22:03:16.854Z,27.3
2018-06-12T22:13:16.609Z,27.3
2018-06-12T22:23:15.323Z,27.3
2018-06-12T22:33:14.480Z,27.3
2018-06-12T22:43:13.723Z,27.3
2018-06-12T22:53:12.951Z,27.2
2018-06-12T23:03:12.471Z,27.2
2018-06-12T23:13:11.422Z,27.3
2018-06-12T23:23:10.666Z,27.2
2018-06-12T23:33:10.172Z,27.3
2018-06-12T23:43:09.233Z,27.1
2018-06-12T23:53:08.470Z,27.2
